sensor_id;sensor_type;location;lat;lon;timestamp;pressure;altitude;pressure_sealevel;temperature;humidity
12624;BME280;6377;42.836;23.998;2023-07-13T00:02:09;95853.88;;;22.41;100.00
12624;BME280;6377;42.836;23.998;2023-07-13T00:04:37;95855.94;;;22.33;100.00
12624;BME280;6377;42.836;23.998;2023-07-13T00:07:05;95839.03;;;22.38;100.00
12624;BME280;6377;42.836;23.998;2023-07-13T00:09:32;95821.31;;;22.42;100.00
12624;BME280;6377;42.836;23.998;2023-07-13T00:12:00;95855.47;;;22.58;100.00
12624;BME280;6377;42.836;23.998;2023-07-13T00:14:29;95839.97;;;22.65;100.00
12624;BME280;6377;42.836;23.998;2023-07-13T00:16:57;95839.88;;;22.77;100.00
12624;BME280;6377;42.836;23.998;2023-07-13T00:19:26;95834.28;;;22.83;100.00
12624;BME280;6377;42.836;23.998;2023-07-13T00:21:53;95832.97;;;22.86;100.00
12624;BME280;6377;42.836;23.998;2023-07-13T00:24:21;95822.09;;;22.81;100.00
12624;BME280;6377;42.836;23.998;2023-07-13T00:26:50;95799.97;;;22.79;100.00
12624;BME280;6377;42.836;23.998;2023-07-13T00:29:17;95817.53;;;23.03;100.00
12624;BME280;6377;42.836;23.998;2023-07-13T00:31:48;95816.56;;;23.14;100.00
12624;BME280;6377;42.836;23.998;2023-07-13T00:34:16;95822.66;;;23.05;100.00
12624;BME280;6377;42.836;23.998;2023-07-13T00:36:43;95816.06;;;22.96;100.00
12624;BME280;6377;42.836;23.998;2023-07-13T00:39:11;95821.59;;;22.84;100.00
12624;BME280;6377;42.836;23.998;2023-07-13T00:41:38;95821.09;;;22.65;100.00
12624;BME280;6377;42.836;23.998;2023-07-13T00:44:09;95809.16;;;22.61;100.00
12624;BME280;6377;42.836;23.998;2023-07-13T00:46:39;95827.13;;;22.72;100.00
12624;BME280;6377;42.836;23.998;2023-07-13T00:49:10;95817.75;;;22.58;100.00
12624;BME280;6377;42.836;23.998;2023-07-13T00:51:45;95803.44;;;22.36;100.00
12624;BME280;6377;42.836;23.998;2023-07-13T00:54:20;95817.78;;;22.42;100.00
12624;BME280;6377;42.836;23.998;2023-07-13T00:56:50;95769.72;;;22.17;100.00
12624;BME280;6377;42.836;23.998;2023-07-13T00:59:20;95794.59;;;22.41;100.00
12624;BME280;6377;42.836;23.998;2023-07-13T01:01:49;95820.44;;;22.58;100.00
12624;BME280;6377;42.836;23.998;2023-07-13T01:04:18;95818.25;;;22.72;100.00
12624;BME280;6377;42.836;23.998;2023-07-13T01:06:46;95816.31;;;22.72;100.00
12624;BME280;6377;42.836;23.998;2023-07-13T01:09:14;95808.09;;;22.62;100.00
12624;BME280;6377;42.836;23.998;2023-07-13T01:11:41;95815.22;;;22.68;100.00
12624;BME280;6377;42.836;23.998;2023-07-13T01:14:10;95808.56;;;22.76;100.00
12624;BME280;6377;42.836;23.998;2023-07-13T01:16:39;95804.53;;;22.57;100.00
12624;BME280;6377;42.836;23.998;2023-07-13T01:19:14;95806.94;;;22.58;100.00
12624;BME280;6377;42.836;23.998;2023-07-13T01:21:50;95813.34;;;22.52;100.00
12624;BME280;6377;42.836;23.998;2023-07-13T01:24:30;95768.28;;;22.09;100.00
12624;BME280;6377;42.836;23.998;2023-07-13T01:26:57;95807.84;;;22.25;100.00
12624;BME280;6377;42.836;23.998;2023-07-13T01:29:24;95815.19;;;22.13;100.00
12624;BME280;6377;42.836;23.998;2023-07-13T01:31:52;95817.09;;;21.96;100.00
12624;BME280;6377;42.836;23.998;2023-07-13T01:34:22;95804.84;;;22.05;100.00
12624;BME280;6377;42.836;23.998;2023-07-13T01:36:51;95801.94;;;22.07;100.00
12624;BME280;6377;42.836;23.998;2023-07-13T01:39:25;95786.09;;;21.94;100.00
12624;BME280;6377;42.836;23.998;2023-07-13T01:41:56;95789.19;;;21.86;100.00
12624;BME280;6377;42.836;23.998;2023-07-13T01:44:23;95799.97;;;22.02;100.00
12624;BME280;6377;42.836;23.998;2023-07-13T01:46:51;95780.53;;;21.84;100.00
12624;BME280;6377;42.836;23.998;2023-07-13T01:49:19;95773.72;;;21.93;100.00
12624;BME280;6377;42.836;23.998;2023-07-13T01:51:46;95793.88;;;22.28;100.00
12624;BME280;6377;42.836;23.998;2023-07-13T01:54:15;95797.72;;;22.32;100.00
12624;BME280;6377;42.836;23.998;2023-07-13T01:56:48;95793.84;;;22.45;100.00
12624;BME280;6377;42.836;23.998;2023-07-13T01:59:16;95793.59;;;22.47;100.00
12624;BME280;6377;42.836;23.998;2023-07-13T02:01:49;95786.31;;;22.47;100.00
12624;BME280;6377;42.836;23.998;2023-07-13T02:04:20;95769.13;;;22.31;100.00
12624;BME280;6377;42.836;23.998;2023-07-13T02:06:47;95812.66;;;22.62;100.00
12624;BME280;6377;42.836;23.998;2023-07-13T02:09:16;95805.75;;;22.66;100.00
12624;BME280;6377;42.836;23.998;2023-07-13T02:11:44;95771.09;;;22.58;100.00
12624;BME280;6377;42.836;23.998;2023-07-13T02:14:11;95800.72;;;22.74;100.00
12624;BME280;6377;42.836;23.998;2023-07-13T02:16:39;95812.19;;;22.65;100.00
12624;BME280;6377;42.836;23.998;2023-07-13T02:19:07;95790.06;;;22.46;100.00
12624;BME280;6377;42.836;23.998;2023-07-13T02:21:34;95807.19;;;22.35;100.00
12624;BME280;6377;42.836;23.998;2023-07-13T02:24:02;95795.47;;;22.08;100.00
12624;BME280;6377;42.836;23.998;2023-07-13T02:26:31;95788.22;;;21.92;100.00
12624;BME280;6377;42.836;23.998;2023-07-13T02:28:59;95813.50;;;21.91;100.00
12624;BME280;6377;42.836;23.998;2023-07-13T02:31:26;95796.44;;;21.85;100.00
12624;BME280;6377;42.836;23.998;2023-07-13T02:33:54;95806.25;;;21.91;100.00
12624;BME280;6377;42.836;23.998;2023-07-13T02:36:21;95811.22;;;21.83;100.00
12624;BME280;6377;42.836;23.998;2023-07-13T02:38:50;95770.16;;;21.42;100.00
12624;BME280;6377;42.836;23.998;2023-07-13T02:41:17;95807.78;;;21.54;100.00
12624;BME280;6377;42.836;23.998;2023-07-13T02:43:46;95810.72;;;21.69;100.00
12624;BME280;6377;42.836;23.998;2023-07-13T02:46:14;95760.53;;;21.46;100.00
12624;BME280;6377;42.836;23.998;2023-07-13T02:48:42;95808.63;;;21.88;100.00
12624;BME280;6377;42.836;23.998;2023-07-13T02:51:09;95798.16;;;21.74;100.00
12624;BME280;6377;42.836;23.998;2023-07-13T02:53:37;95789.25;;;21.57;100.00
12624;BME280;6377;42.836;23.998;2023-07-13T02:56:05;95762.75;;;21.66;100.00
12624;BME280;6377;42.836;23.998;2023-07-13T02:58:33;95777.75;;;21.78;100.00
12624;BME280;6377;42.836;23.998;2023-07-13T03:01:06;95771.88;;;21.82;100.00
12624;BME280;6377;42.836;23.998;2023-07-13T03:03:34;95762.91;;;21.76;100.00
12624;BME280;6377;42.836;23.998;2023-07-13T03:06:03;95807.44;;;22.17;100.00
12624;BME280;6377;42.836;23.998;2023-07-13T03:08:33;95804.53;;;22.18;100.00
12624;BME280;6377;42.836;23.998;2023-07-13T03:11:01;95805.59;;;22.01;100.00
12624;BME280;6377;42.836;23.998;2023-07-13T03:13:28;95807.47;;;22.00;100.00
12624;BME280;6377;42.836;23.998;2023-07-13T03:15:56;95798.66;;;21.88;100.00
12624;BME280;6377;42.836;23.998;2023-07-13T03:18:26;95748.41;;;21.60;100.00
12624;BME280;6377;42.836;23.998;2023-07-13T03:20:54;95803.88;;;22.11;100.00
12624;BME280;6377;42.836;23.998;2023-07-13T03:23:22;95794.25;;;21.99;100.00
12624;BME280;6377;42.836;23.998;2023-07-13T03:25:50;95749.38;;;21.71;100.00
12624;BME280;6377;42.836;23.998;2023-07-13T03:28:28;95802.75;;;22.07;100.00
12624;BME280;6377;42.836;23.998;2023-07-13T03:31:00;95805.75;;;21.94;100.00
12624;BME280;6377;42.836;23.998;2023-07-13T03:33:29;95793.84;;;21.90;100.00
12624;BME280;6377;42.836;23.998;2023-07-13T03:35:57;95811.91;;;21.90;100.00
12624;BME280;6377;42.836;23.998;2023-07-13T03:38:24;95754.84;;;21.59;100.00
12624;BME280;6377;42.836;23.998;2023-07-13T03:40:52;95800.66;;;21.93;100.00
12624;BME280;6377;42.836;23.998;2023-07-13T03:43:22;95819.31;;;21.99;100.00
12624;BME280;6377;42.836;23.998;2023-07-13T03:45:50;95815.00;;;21.98;100.00
12624;BME280;6377;42.836;23.998;2023-07-13T03:48:20;95817.91;;;21.97;100.00
12624;BME280;6377;42.836;23.998;2023-07-13T03:50:49;95773.94;;;21.74;100.00
12624;BME280;6377;42.836;23.998;2023-07-13T03:53:17;95822.16;;;22.09;100.00
12624;BME280;6377;42.836;23.998;2023-07-13T03:55:44;95806.25;;;21.91;100.00
12624;BME280;6377;42.836;23.998;2023-07-13T03:58:28;95810.38;;;21.82;100.00
12624;BME280;6377;42.836;23.998;2023-07-13T04:00:54;95822.00;;;21.99;100.00
12624;BME280;6377;42.836;23.998;2023-07-13T04:03:23;95814.09;;;22.09;100.00
12624;BME280;6377;42.836;23.998;2023-07-13T04:05:52;95819.38;;;22.21;100.00
12624;BME280;6377;42.836;23.998;2023-07-13T04:08:19;95801.00;;;22.18;100.00
12624;BME280;6377;42.836;23.998;2023-07-13T04:10:46;95817.41;;;22.33;100.00
12624;BME280;6377;42.836;23.998;2023-07-13T04:13:14;95823.69;;;22.39;100.00
12624;BME280;6377;42.836;23.998;2023-07-13T04:15:42;95815.53;;;22.33;100.00
12624;BME280;6377;42.836;23.998;2023-07-13T04:18:09;95817.78;;;22.42;100.00
12624;BME280;6377;42.836;23.998;2023-07-13T04:20:36;95826.31;;;22.55;100.00
12624;BME280;6377;42.836;23.998;2023-07-13T04:23:05;95827.63;;;22.53;100.00
12624;BME280;6377;42.836;23.998;2023-07-13T04:25:33;95827.50;;;22.43;100.00
12624;BME280;6377;42.836;23.998;2023-07-13T04:28:00;95816.31;;;22.34;98.33
12624;BME280;6377;42.836;23.998;2023-07-13T04:30:28;95838.31;;;22.26;100.00
12624;BME280;6377;42.836;23.998;2023-07-13T04:32:55;95833.19;;;22.24;100.00
12624;BME280;6377;42.836;23.998;2023-07-13T04:35:23;95831.44;;;22.35;100.00
12624;BME280;6377;42.836;23.998;2023-07-13T04:37:50;95833.97;;;22.42;100.00
12624;BME280;6377;42.836;23.998;2023-07-13T04:40:20;95831.72;;;22.55;100.00
12624;BME280;6377;42.836;23.998;2023-07-13T04:42:47;95827.31;;;22.66;100.00
12624;BME280;6377;42.836;23.998;2023-07-13T04:45:15;95812.34;;;22.58;100.00
12624;BME280;6377;42.836;23.998;2023-07-13T04:47:43;95815.72;;;22.65;100.00
12624;BME280;6377;42.836;23.998;2023-07-13T04:50:13;95820.94;;;22.72;100.00
12624;BME280;6377;42.836;23.998;2023-07-13T04:52:46;95822.84;;;22.76;100.00
12624;BME280;6377;42.836;23.998;2023-07-13T04:55:15;95821.03;;;22.82;100.00
12624;BME280;6377;42.836;23.998;2023-07-13T04:57:44;95830.31;;;22.91;98.01
12624;BME280;6377;42.836;23.998;2023-07-13T05:00:13;95832.69;;;22.87;99.52
12624;BME280;6377;42.836;23.998;2023-07-13T05:02:43;95834.72;;;22.97;99.50
12624;BME280;6377;42.836;23.998;2023-07-13T05:05:11;95827.94;;;22.95;99.16
12624;BME280;6377;42.836;23.998;2023-07-13T05:07:38;95822.22;;;22.91;100.00
12624;BME280;6377;42.836;23.998;2023-07-13T05:10:07;95833.66;;;22.98;99.99
12624;BME280;6377;42.836;23.998;2023-07-13T05:12:34;95817.84;;;22.85;99.16
12624;BME280;6377;42.836;23.998;2023-07-13T05:15:04;95841.03;;;23.08;97.92
12624;BME280;6377;42.836;23.998;2023-07-13T05:17:32;95840.28;;;23.12;96.87
12624;BME280;6377;42.836;23.998;2023-07-13T05:19:59;95834.59;;;23.09;96.96
12624;BME280;6377;42.836;23.998;2023-07-13T05:22:27;95811.81;;;23.00;96.01
12624;BME280;6377;42.836;23.998;2023-07-13T05:24:54;95827.03;;;23.11;95.94
12624;BME280;6377;42.836;23.998;2023-07-13T05:27:21;95818.84;;;23.01;96.11
12624;BME280;6377;42.836;23.998;2023-07-13T05:29:49;95822.97;;;23.08;97.36
12624;BME280;6377;42.836;23.998;2023-07-13T05:32:18;95820.44;;;23.23;99.39
12624;BME280;6377;42.836;23.998;2023-07-13T05:34:46;95778.94;;;23.03;99.52
12624;BME280;6377;42.836;23.998;2023-07-13T05:37:13;95825.78;;;23.40;97.09
12624;BME280;6377;42.836;23.998;2023-07-13T05:39:41;95827.72;;;23.45;96.03
12624;BME280;6377;42.836;23.998;2023-07-13T05:42:08;95799.38;;;23.20;94.72
12624;BME280;6377;42.836;23.998;2023-07-13T05:44:36;95836.69;;;23.50;93.64
12624;BME280;6377;42.836;23.998;2023-07-13T05:47:03;95832.53;;;23.69;100.00
12624;BME280;6377;42.836;23.998;2023-07-13T05:49:33;95839.69;;;23.80;96.79
12624;BME280;6377;42.836;23.998;2023-07-13T05:52:00;95847.16;;;24.05;100.00
12624;BME280;6377;42.836;23.998;2023-07-13T05:54:27;95840.53;;;24.18;98.17
12624;BME280;6377;42.836;23.998;2023-07-13T05:56:55;95819.16;;;24.16;95.26
12624;BME280;6377;42.836;23.998;2023-07-13T05:59:23;95845.06;;;24.49;94.66
12624;BME280;6377;42.836;23.998;2023-07-13T06:01:51;95845.06;;;24.49;92.91
12624;BME280;6377;42.836;23.998;2023-07-13T06:04:19;95841.28;;;24.45;94.47
12624;BME280;6377;42.836;23.998;2023-07-13T06:06:48;95856.25;;;24.63;96.27
12624;BME280;6377;42.836;23.998;2023-07-13T06:09:15;95853.59;;;24.68;95.91
12624;BME280;6377;42.836;23.998;2023-07-13T06:11:43;95856.84;;;24.75;97.29
12624;BME280;6377;42.836;23.998;2023-07-13T06:14:10;95853.72;;;24.88;99.08
12624;BME280;6377;42.836;23.998;2023-07-13T06:16:39;95852.72;;;25.09;100.00
12624;BME280;6377;42.836;23.998;2023-07-13T06:19:06;95844.91;;;25.13;92.78
12624;BME280;6377;42.836;23.998;2023-07-13T06:21:34;95849.28;;;25.34;92.56
12624;BME280;6377;42.836;23.998;2023-07-13T06:24:03;95850.97;;;25.45;87.41
12624;BME280;6377;42.836;23.998;2023-07-13T06:26:30;95846.91;;;25.47;83.40
12624;BME280;6377;42.836;23.998;2023-07-13T06:28:58;95846.72;;;25.74;85.90
12624;BME280;6377;42.836;23.998;2023-07-13T06:31:26;95817.16;;;25.73;82.14
12624;BME280;6377;42.836;23.998;2023-07-13T06:33:53;95834.53;;;25.97;87.71
12624;BME280;6377;42.836;23.998;2023-07-13T06:36:21;95842.09;;;26.10;81.21
12624;BME280;6377;42.836;23.998;2023-07-13T06:38:49;95825.59;;;26.11;81.51
12624;BME280;6377;42.836;23.998;2023-07-13T06:41:17;95832.09;;;26.10;76.31
12624;BME280;6377;42.836;23.998;2023-07-13T06:43:45;95808.00;;;26.24;76.89
12624;BME280;6377;42.836;23.998;2023-07-13T06:46:12;95830.72;;;26.48;74.84
12624;BME280;6377;42.836;23.998;2023-07-13T06:48:40;95820.94;;;26.62;70.78
12624;BME280;6377;42.836;23.998;2023-07-13T06:51:13;95820.66;;;26.64;68.68
12624;BME280;6377;42.836;23.998;2023-07-13T06:53:41;95828.75;;;26.84;68.21
12624;BME280;6377;42.836;23.998;2023-07-13T06:56:09;95823.59;;;26.88;67.17
12624;BME280;6377;42.836;23.998;2023-07-13T06:58:38;95786.72;;;26.82;72.58
12624;BME280;6377;42.836;23.998;2023-07-13T07:01:06;95805.09;;;27.00;69.51
12624;BME280;6377;42.836;23.998;2023-07-13T07:03:33;95779.78;;;27.14;72.95
12624;BME280;6377;42.836;23.998;2023-07-13T07:06:01;95802.72;;;27.37;70.30
12624;BME280;6377;42.836;23.998;2023-07-13T07:08:29;95818.09;;;27.62;70.74
12624;BME280;6377;42.836;23.998;2023-07-13T07:10:56;95826.25;;;27.62;68.90
12624;BME280;6377;42.836;23.998;2023-07-13T07:13:24;95818.66;;;27.59;70.04
12624;BME280;6377;42.836;23.998;2023-07-13T07:16:08;95811.75;;;27.76;72.10
12624;BME280;6377;42.836;23.998;2023-07-13T07:18:38;95812.47;;;27.87;69.45
12624;BME280;6377;42.836;23.998;2023-07-13T07:21:12;95807.50;;;27.99;72.17
12624;BME280;6377;42.836;23.998;2023-07-13T07:23:43;95797.69;;;28.03;72.14
12624;BME280;6377;42.836;23.998;2023-07-13T07:26:19;95816.84;;;28.22;73.38
12624;BME280;6377;42.836;23.998;2023-07-13T07:28:53;95813.66;;;28.44;73.11
12624;BME280;6377;42.836;23.998;2023-07-13T07:31:22;95798.94;;;28.45;69.77
12624;BME280;6377;42.836;23.998;2023-07-13T07:33:49;95763.63;;;28.40;74.79
12624;BME280;6377;42.836;23.998;2023-07-13T07:36:23;95811.28;;;28.89;70.53
12624;BME280;6377;42.836;23.998;2023-07-13T07:38:51;95802.66;;;29.06;68.40
12624;BME280;6377;42.836;23.998;2023-07-13T07:41:24;95647.97;;;28.18;65.86
12624;BME280;6377;42.836;23.998;2023-07-13T07:43:54;95754.16;;;28.84;64.04
12624;BME280;6377;42.836;23.998;2023-07-13T07:46:23;95805.44;;;29.43;64.65
12624;BME280;6377;42.836;23.998;2023-07-13T07:48:55;95807.22;;;29.53;61.45
12624;BME280;6377;42.836;23.998;2023-07-13T07:51:28;95762.56;;;29.30;59.24
12624;BME280;6377;42.836;23.998;2023-07-13T07:56:32;95757.13;;;29.68;59.06
12624;BME280;6377;42.836;23.998;2023-07-13T07:59:12;95723.06;;;29.65;55.21
12624;BME280;6377;42.836;23.998;2023-07-13T08:01:41;95756.34;;;29.99;54.30
12624;BME280;6377;42.836;23.998;2023-07-13T08:04:09;95770.84;;;30.27;52.51
12624;BME280;6377;42.836;23.998;2023-07-13T08:06:49;95688.13;;;29.86;51.22
12624;BME280;6377;42.836;23.998;2023-07-13T08:09:16;95729.63;;;30.29;51.06
12624;BME280;6377;42.836;23.998;2023-07-13T08:11:44;95748.88;;;30.51;51.49
12624;BME280;6377;42.836;23.998;2023-07-13T08:14:11;95783.19;;;30.84;50.24
12624;BME280;6377;42.836;23.998;2023-07-13T08:16:43;95715.00;;;30.38;49.81
12624;BME280;6377;42.836;23.998;2023-07-13T08:19:10;95764.78;;;30.90;49.74
12624;BME280;6377;42.836;23.998;2023-07-13T08:21:38;95772.59;;;30.96;49.57
12624;BME280;6377;42.836;23.998;2023-07-13T08:24:05;95786.75;;;31.12;51.74
12624;BME280;6377;42.836;23.998;2023-07-13T08:26:33;95773.88;;;31.13;49.39
12624;BME280;6377;42.836;23.998;2023-07-13T08:29:09;95779.16;;;31.23;49.50
12624;BME280;6377;42.836;23.998;2023-07-13T08:31:44;95769.28;;;31.35;49.87
12624;BME280;6377;42.836;23.998;2023-07-13T08:34:12;95714.09;;;30.97;48.53
12624;BME280;6377;42.836;23.998;2023-07-13T08:36:40;95715.84;;;30.93;47.42
12624;BME280;6377;42.836;23.998;2023-07-13T08:39:08;95745.09;;;31.42;46.85
12624;BME280;6377;42.836;23.998;2023-07-13T08:41:35;95783.94;;;31.67;46.39
12624;BME280;6377;42.836;23.998;2023-07-13T08:44:17;95748.59;;;31.70;47.51
12624;BME280;6377;42.836;23.998;2023-07-13T08:46:56;95739.50;;;31.61;45.13
12624;BME280;6377;42.836;23.998;2023-07-13T08:49:41;95684.75;;;31.52;47.25
12624;BME280;6377;42.836;23.998;2023-07-13T08:52:15;95683.00;;;31.56;45.33
12624;BME280;6377;42.836;23.998;2023-07-13T08:54:57;95689.38;;;31.74;43.82
12624;BME280;6377;42.836;23.998;2023-07-13T08:57:32;95712.88;;;31.97;44.60
12624;BME280;6377;42.836;23.998;2023-07-13T09:03:19;95740.44;;;32.23;43.71
12624;BME280;6377;42.836;23.998;2023-07-13T09:05:52;95787.75;;;32.77;42.37
12624;BME280;6377;42.836;23.998;2023-07-13T09:08:39;95798.88;;;32.80;40.47
12624;BME280;6377;42.836;23.998;2023-07-13T09:11:28;95794.66;;;33.05;41.37
12624;BME280;6377;42.836;23.998;2023-07-13T09:14:19;95787.28;;;33.14;39.64
12624;BME280;6377;42.836;23.998;2023-07-13T09:19:28;95811.56;;;33.55;39.79
12624;BME280;6377;42.836;23.998;2023-07-13T09:24:38;95674.19;;;33.00;40.54
12624;BME280;6377;42.836;23.998;2023-07-13T09:27:15;95723.75;;;33.29;37.64
12624;BME280;6377;42.836;23.998;2023-07-13T09:29:48;95764.63;;;33.82;38.24
12624;BME280;6377;42.836;23.998;2023-07-13T09:34:55;95795.97;;;34.15;38.11
12624;BME280;6377;42.836;23.998;2023-07-13T09:37:29;95773.19;;;34.06;38.24
12624;BME280;6377;42.836;23.998;2023-07-13T09:39:59;95788.38;;;34.21;37.81
12624;BME280;6377;42.836;23.998;2023-07-13T09:42:32;95777.38;;;34.29;37.96
12624;BME280;6377;42.836;23.998;2023-07-13T09:45:01;95744.41;;;34.29;40.36
12624;BME280;6377;42.836;23.998;2023-07-13T09:47:40;95672.34;;;33.69;42.15
12624;BME280;6377;42.836;23.998;2023-07-13T09:55:30;95745.53;;;34.46;41.69
12624;BME280;6377;42.836;23.998;2023-07-13T10:03:17;95784.25;;;34.70;41.42
12624;BME280;6377;42.836;23.998;2023-07-13T10:05:48;95738.72;;;34.52;40.96
12624;BME280;6377;42.836;23.998;2023-07-13T10:08:18;95717.19;;;34.62;41.01
12624;BME280;6377;42.836;23.998;2023-07-13T10:10:57;95732.91;;;34.91;40.35
12624;BME280;6377;42.836;23.998;2023-07-13T10:42:27;95762.34;;;37.74;35.71
12624;BME280;6377;42.836;23.998;2023-07-13T10:44:55;95729.41;;;37.93;36.03
12624;BME280;6377;42.836;23.998;2023-07-13T10:47:24;95741.78;;;37.99;34.36
12624;BME280;6377;42.836;23.998;2023-07-13T10:49:55;95745.81;;;37.49;34.60
12624;BME280;6377;42.836;23.998;2023-07-13T10:52:46;95746.22;;;37.76;32.92
12624;BME280;6377;42.836;23.998;2023-07-13T10:55:35;95661.47;;;37.64;33.26
12624;BME280;6377;42.836;23.998;2023-07-13T10:58:13;95699.94;;;38.40;33.02
12624;BME280;6377;42.836;23.998;2023-07-13T11:00:49;95676.06;;;38.04;32.51
12624;BME280;6377;42.836;23.998;2023-07-13T11:03:20;95726.03;;;38.86;33.01
12624;BME280;6377;42.836;23.998;2023-07-13T11:05:51;95734.50;;;39.09;31.22
12624;BME280;6377;42.836;23.998;2023-07-13T11:08:53;95720.38;;;39.30;30.96
12624;BME280;6377;42.836;23.998;2023-07-13T11:11:37;95677.25;;;39.29;31.46
12624;BME280;6377;42.836;23.998;2023-07-13T11:14:34;95674.41;;;39.60;29.90
12624;BME280;6377;42.836;23.998;2023-07-13T11:17:29;95718.16;;;40.27;30.40
12624;BME280;6377;42.836;23.998;2023-07-13T11:20:21;95678.34;;;40.16;29.40
12624;BME280;6377;42.836;23.998;2023-07-13T11:23:06;95720.13;;;40.69;28.94
12624;BME280;6377;42.836;23.998;2023-07-13T11:25:36;95727.41;;;40.77;28.87
12624;BME280;6377;42.836;23.998;2023-07-13T11:28:16;95722.75;;;40.84;27.67
12624;BME280;6377;42.836;23.998;2023-07-13T11:30:50;95715.50;;;40.76;28.69
12624;BME280;6377;42.836;23.998;2023-07-13T11:33:52;95723.47;;;41.01;27.12
12624;BME280;6377;42.836;23.998;2023-07-13T11:36:22;95667.13;;;40.51;26.54
12624;BME280;6377;42.836;23.998;2023-07-13T11:39:04;95594.50;;;40.00;27.40
12624;BME280;6377;42.836;23.998;2023-07-13T11:41:37;95623.44;;;40.45;27.43
12624;BME280;6377;42.836;23.998;2023-07-13T11:44:13;95715.56;;;41.29;26.78
12624;BME280;6377;42.836;23.998;2023-07-13T11:46:47;95717.38;;;41.18;26.76
12624;BME280;6377;42.836;23.998;2023-07-13T11:49:18;95713.41;;;41.19;26.07
12624;BME280;6377;42.836;23.998;2023-07-13T11:51:46;95658.03;;;41.00;26.19
12624;BME280;6377;42.836;23.998;2023-07-13T11:54:28;95707.66;;;41.57;25.60
12624;BME280;6377;42.836;23.998;2023-07-13T11:59:31;95570.66;;;41.46;25.00
12624;BME280;6377;42.836;23.998;2023-07-13T12:02:01;95556.94;;;41.57;24.73
12624;BME280;6377;42.836;23.998;2023-07-13T12:04:32;95635.63;;;42.38;24.17
12624;BME280;6377;42.836;23.998;2023-07-13T12:07:05;95541.91;;;41.98;24.64
12624;BME280;6377;42.836;23.998;2023-07-13T12:09:34;95550.25;;;41.98;24.53
12624;BME280;6377;42.836;23.998;2023-07-13T12:12:08;95567.22;;;41.56;24.23
12624;BME280;6377;42.836;23.998;2023-07-13T12:14:37;95556.19;;;41.63;24.56
12624;BME280;6377;42.836;23.998;2023-07-13T12:17:13;95648.84;;;42.52;23.95
12624;BME280;6377;42.836;23.998;2023-07-13T12:19:41;95615.50;;;42.55;24.65
12624;BME280;6377;42.836;23.998;2023-07-13T12:22:12;95651.91;;;42.83;23.86
12624;BME280;6377;42.836;23.998;2023-07-13T12:24:41;95662.22;;;42.02;24.37
12624;BME280;6377;42.836;23.998;2023-07-13T12:27:19;95590.00;;;40.83;24.95
12624;BME280;6377;42.836;23.998;2023-07-13T12:29:52;95639.69;;;41.18;25.67
12624;BME280;6377;42.836;23.998;2023-07-13T12:32:24;95634.44;;;41.39;25.43
12624;BME280;6377;42.836;23.998;2023-07-13T12:34:53;95630.00;;;41.64;26.04
12624;BME280;6377;42.836;23.998;2023-07-13T12:37:22;95617.41;;;42.07;25.93
12624;BME280;6377;42.836;23.998;2023-07-13T12:39:52;95626.84;;;42.32;25.23
12624;BME280;6377;42.836;23.998;2023-07-13T12:42:23;95624.84;;;42.77;25.19
12624;BME280;6377;42.836;23.998;2023-07-13T12:44:54;95623.09;;;43.06;24.37
12624;BME280;6377;42.836;23.998;2023-07-13T12:47:24;95608.78;;;43.04;24.61
12624;BME280;6377;42.836;23.998;2023-07-13T12:49:55;95617.72;;;42.79;24.00
12624;BME280;6377;42.836;23.998;2023-07-13T12:52:27;95616.06;;;43.26;24.04
12624;BME280;6377;42.836;23.998;2023-07-13T12:55:05;95629.91;;;43.87;23.38
12624;BME280;6377;42.836;23.998;2023-07-13T12:57:41;95568.09;;;43.64;23.48
12624;BME280;6377;42.836;23.998;2023-07-13T13:00:27;95609.88;;;43.61;23.33
12624;BME280;6377;42.836;23.998;2023-07-13T13:03:12;95540.66;;;42.90;23.89
12624;BME280;6377;42.836;23.998;2023-07-13T13:05:47;95616.69;;;43.70;25.10
12624;BME280;6377;42.836;23.998;2023-07-13T13:08:15;95528.09;;;43.14;24.99
12624;BME280;6377;42.836;23.998;2023-07-13T13:10:43;95566.50;;;43.56;24.67
12624;BME280;6377;42.836;23.998;2023-07-13T13:13:11;95566.06;;;43.54;23.67
12624;BME280;6377;42.836;23.998;2023-07-13T13:15:39;95597.97;;;43.71;24.98
12624;BME280;6377;42.836;23.998;2023-07-13T13:18:15;95554.56;;;43.66;25.42
12624;BME280;6377;42.836;23.998;2023-07-13T13:20:43;95574.56;;;43.93;24.94
12624;BME280;6377;42.836;23.998;2023-07-13T13:23:13;95614.13;;;44.41;24.66
12624;BME280;6377;42.836;23.998;2023-07-13T13:25:43;95611.31;;;44.37;24.05
12624;BME280;6377;42.836;23.998;2023-07-13T13:28:15;95584.16;;;43.99;24.46
12624;BME280;6377;42.836;23.998;2023-07-13T13:30:44;95611.69;;;44.25;24.66
12624;BME280;6377;42.836;23.998;2023-07-13T13:33:15;95600.06;;;44.02;24.50
12624;BME280;6377;42.836;23.998;2023-07-13T13:35:43;95578.53;;;43.81;25.74
12624;BME280;6377;42.836;23.998;2023-07-13T13:38:12;95599.41;;;43.33;24.73
12624;BME280;6377;42.836;23.998;2023-07-13T13:40:41;95609.66;;;43.18;25.46
12624;BME280;6377;42.836;23.998;2023-07-13T13:43:15;95609.47;;;43.55;25.30
12624;BME280;6377;42.836;23.998;2023-07-13T13:45:44;95566.34;;;43.24;25.01
12624;BME280;6377;42.836;23.998;2023-07-13T13:48:19;95604.25;;;43.46;25.21
12624;BME280;6377;42.836;23.998;2023-07-13T13:50:48;95598.66;;;43.43;25.39
12624;BME280;6377;42.836;23.998;2023-07-13T13:53:16;95595.50;;;43.51;26.01
12624;BME280;6377;42.836;23.998;2023-07-13T13:55:43;95590.38;;;43.61;24.67
12624;BME280;6377;42.836;23.998;2023-07-13T13:58:12;95551.34;;;42.30;24.59
12624;BME280;6377;42.836;23.998;2023-07-13T14:00:40;95554.66;;;42.03;25.23
12624;BME280;6377;42.836;23.998;2023-07-13T14:03:14;95566.03;;;41.90;25.36
12624;BME280;6377;42.836;23.998;2023-07-13T14:05:44;95571.94;;;41.52;25.35
12624;BME280;6377;42.836;23.998;2023-07-13T14:08:14;95578.47;;;41.33;25.30
12624;BME280;6377;42.836;23.998;2023-07-13T14:10:43;95554.09;;;41.53;26.06